sensor_id;sensor_type;location;lat;lon;timestamp;P1;durP1;ratioP1;P2;durP2;ratioP2
21128;SDS011;10722;51.910;8.352;2024-01-30T00:01:19;31.90;;;17.00;;
21128;SDS011;10722;51.910;8.352;2024-01-30T00:04:04;31.20;;;17.83;;
21128;SDS011;10722;51.910;8.352;2024-01-30T00:06:50;30.70;;;17.17;;
21128;SDS011;10722;51.910;8.352;2024-01-30T00:09:36;29.10;;;17.30;;
21128;SDS011;10722;51.910;8.352;2024-01-30T00:12:20;29.83;;;17.17;;
21128;SDS011;10722;51.910;8.352;2024-01-30T00:15:05;30.23;;;18.20;;
21128;SDS011;10722;51.910;8.352;2024-01-30T00:17:50;30.47;;;17.50;;
21128;SDS011;10722;51.910;8.352;2024-01-30T00:20:36;29.33;;;16.90;;
21128;SDS011;10722;51.910;8.352;2024-01-30T00:23:21;29.23;;;17.27;;
21128;SDS011;10722;51.910;8.352;2024-01-30T00:26:06;27.80;;;17.43;;
21128;SDS011;10722;51.910;8.352;2024-01-30T00:28:50;28.43;;;17.13;;
21128;SDS011;10722;51.910;8.352;2024-01-30T00:31:35;30.77;;;17.77;;
21128;SDS011;10722;51.910;8.352;2024-01-30T00:34:25;29.40;;;17.40;;
21128;SDS011;10722;51.910;8.352;2024-01-30T00:37:10;31.23;;;17.97;;
21128;SDS011;10722;51.910;8.352;2024-01-30T00:39:55;29.27;;;17.90;;
21128;SDS011;10722;51.910;8.352;2024-01-30T00:42:41;30.00;;;18.07;;
21128;SDS011;10722;51.910;8.352;2024-01-30T00:45:27;28.73;;;17.83;;
21128;SDS011;10722;51.910;8.352;2024-01-30T00:48:12;31.37;;;18.40;;
21128;SDS011;10722;51.910;8.352;2024-01-30T00:50:57;32.00;;;18.33;;
21128;SDS011;10722;51.910;8.352;2024-01-30T00:53:42;30.00;;;19.00;;
21128;SDS011;10722;51.910;8.352;2024-01-30T00:56:27;31.73;;;18.80;;
21128;SDS011;10722;51.910;8.352;2024-01-30T00:59:12;30.73;;;18.07;;
21128;SDS011;10722;51.910;8.352;2024-01-30T01:01:57;31.33;;;18.87;;
21128;SDS011;10722;51.910;8.352;2024-01-30T01:04:43;30.33;;;18.37;;
21128;SDS011;10722;51.910;8.352;2024-01-30T01:07:29;31.10;;;19.07;;
21128;SDS011;10722;51.910;8.352;2024-01-30T01:10:14;31.90;;;19.40;;
21128;SDS011;10722;51.910;8.352;2024-01-30T01:13:00;34.20;;;18.77;;
21128;SDS011;10722;51.910;8.352;2024-01-30T01:15:46;30.87;;;17.87;;
21128;SDS011;10722;51.910;8.352;2024-01-30T01:18:30;29.20;;;18.43;;
21128;SDS011;10722;51.910;8.352;2024-01-30T01:21:16;28.80;;;17.83;;
21128;SDS011;10722;51.910;8.352;2024-01-30T01:24:00;31.53;;;19.53;;
21128;SDS011;10722;51.910;8.352;2024-01-30T01:26:45;31.13;;;19.20;;
21128;SDS011;10722;51.910;8.352;2024-01-30T01:29:30;34.40;;;18.93;;
21128;SDS011;10722;51.910;8.352;2024-01-30T01:32:15;33.30;;;19.77;;
21128;SDS011;10722;51.910;8.352;2024-01-30T01:35:01;31.30;;;20.07;;
21128;SDS011;10722;51.910;8.352;2024-01-30T01:37:46;30.90;;;19.37;;
21128;SDS011;10722;51.910;8.352;2024-01-30T01:40:31;32.97;;;19.47;;
21128;SDS011;10722;51.910;8.352;2024-01-30T01:43:16;33.17;;;19.97;;
21128;SDS011;10722;51.910;8.352;2024-01-30T01:46:02;32.07;;;19.63;;
21128;SDS011;10722;51.910;8.352;2024-01-30T01:48:47;34.17;;;19.93;;
21128;SDS011;10722;51.910;8.352;2024-01-30T01:51:33;31.30;;;18.50;;
21128;SDS011;10722;51.910;8.352;2024-01-30T01:54:20;32.10;;;19.23;;
21128;SDS011;10722;51.910;8.352;2024-01-30T01:57:06;32.93;;;19.93;;
21128;SDS011;10722;51.910;8.352;2024-01-30T01:59:51;31.40;;;18.70;;
21128;SDS011;10722;51.910;8.352;2024-01-30T02:02:37;31.83;;;19.03;;
21128;SDS011;10722;51.910;8.352;2024-01-30T02:05:23;32.03;;;18.97;;
21128;SDS011;10722;51.910;8.352;2024-01-30T02:08:09;31.53;;;18.80;;
21128;SDS011;10722;51.910;8.352;2024-01-30T02:10:54;35.97;;;19.80;;
21128;SDS011;10722;51.910;8.352;2024-01-30T02:13:40;32.83;;;19.47;;
21128;SDS011;10722;51.910;8.352;2024-01-30T02:16:26;31.13;;;18.37;;
21128;SDS011;10722;51.910;8.352;2024-01-30T02:19:11;33.70;;;19.20;;
21128;SDS011;10722;51.910;8.352;2024-01-30T02:21:56;30.10;;;19.13;;
21128;SDS011;10722;51.910;8.352;2024-01-30T02:24:42;31.33;;;18.53;;
21128;SDS011;10722;51.910;8.352;2024-01-30T02:27:27;30.67;;;17.87;;
21128;SDS011;10722;51.910;8.352;2024-01-30T02:30:12;32.40;;;19.03;;
21128;SDS011;10722;51.910;8.352;2024-01-30T02:32:57;30.43;;;18.47;;
21128;SDS011;10722;51.910;8.352;2024-01-30T02:35:43;31.47;;;18.73;;
21128;SDS011;10722;51.910;8.352;2024-01-30T02:38:27;31.33;;;19.67;;
21128;SDS011;10722;51.910;8.352;2024-01-30T02:41:13;31.57;;;18.73;;
21128;SDS011;10722;51.910;8.352;2024-01-30T02:43:57;31.00;;;19.13;;
21128;SDS011;10722;51.910;8.352;2024-01-30T02:46:43;29.03;;;18.80;;
21128;SDS011;10722;51.910;8.352;2024-01-30T02:49:27;32.30;;;19.97;;
21128;SDS011;10722;51.910;8.352;2024-01-30T02:52:13;33.87;;;19.87;;
21128;SDS011;10722;51.910;8.352;2024-01-30T02:54:58;34.17;;;20.20;;
21128;SDS011;10722;51.910;8.352;2024-01-30T02:57:44;33.20;;;19.47;;
21128;SDS011;10722;51.910;8.352;2024-01-30T03:00:29;31.17;;;18.93;;
21128;SDS011;10722;51.910;8.352;2024-01-30T03:03:15;36.10;;;19.93;;
21128;SDS011;10722;51.910;8.352;2024-01-30T03:06:00;33.47;;;20.60;;
21128;SDS011;10722;51.910;8.352;2024-01-30T03:08:46;31.23;;;19.90;;
21128;SDS011;10722;51.910;8.352;2024-01-30T03:11:30;32.60;;;20.00;;
21128;SDS011;10722;51.910;8.352;2024-01-30T03:14:15;32.57;;;21.17;;
21128;SDS011;10722;51.910;8.352;2024-01-30T03:17:01;35.37;;;20.27;;
21128;SDS011;10722;51.910;8.352;2024-01-30T03:19:46;34.80;;;20.67;;
21128;SDS011;10722;51.910;8.352;2024-01-30T03:22:31;34.73;;;21.17;;
21128;SDS011;10722;51.910;8.352;2024-01-30T03:25:16;34.33;;;20.13;;
21128;SDS011;10722;51.910;8.352;2024-01-30T03:28:01;37.13;;;20.27;;
21128;SDS011;10722;51.910;8.352;2024-01-30T03:30:47;36.57;;;19.83;;
21128;SDS011;10722;51.910;8.352;2024-01-30T03:33:32;36.00;;;21.43;;
21128;SDS011;10722;51.910;8.352;2024-01-30T03:36:17;33.57;;;20.33;;
21128;SDS011;10722;51.910;8.352;2024-01-30T03:39:02;33.17;;;20.43;;
21128;SDS011;10722;51.910;8.352;2024-01-30T03:41:47;34.40;;;20.87;;
21128;SDS011;10722;51.910;8.352;2024-01-30T03:44:32;34.40;;;20.43;;
21128;SDS011;10722;51.910;8.352;2024-01-30T03:47:17;33.90;;;20.73;;
21128;SDS011;10722;51.910;8.352;2024-01-30T03:50:02;35.00;;;21.23;;
21128;SDS011;10722;51.910;8.352;2024-01-30T03:52:47;35.93;;;20.60;;
21128;SDS011;10722;51.910;8.352;2024-01-30T03:55:32;31.33;;;20.10;;
21128;SDS011;10722;51.910;8.352;2024-01-30T03:58:17;33.57;;;20.40;;
21128;SDS011;10722;51.910;8.352;2024-01-30T04:01:03;34.90;;;20.60;;
21128;SDS011;10722;51.910;8.352;2024-01-30T04:03:48;32.83;;;20.67;;
21128;SDS011;10722;51.910;8.352;2024-01-30T04:06:34;33.93;;;21.47;;
21128;SDS011;10722;51.910;8.352;2024-01-30T04:09:18;34.30;;;20.40;;
21128;SDS011;10722;51.910;8.352;2024-01-30T04:12:03;31.67;;;20.47;;
21128;SDS011;10722;51.910;8.352;2024-01-30T04:14:48;34.67;;;20.90;;
21128;SDS011;10722;51.910;8.352;2024-01-30T04:17:34;37.23;;;21.13;;
21128;SDS011;10722;51.910;8.352;2024-01-30T04:20:19;35.23;;;20.80;;
21128;SDS011;10722;51.910;8.352;2024-01-30T04:23:04;33.77;;;21.17;;
21128;SDS011;10722;51.910;8.352;2024-01-30T04:25:49;34.43;;;20.97;;
21128;SDS011;10722;51.910;8.352;2024-01-30T04:28:34;36.80;;;22.20;;
21128;SDS011;10722;51.910;8.352;2024-01-30T04:31:19;37.13;;;22.13;;
21128;SDS011;10722;51.910;8.352;2024-01-30T04:34:04;39.07;;;22.83;;
21128;SDS011;10722;51.910;8.352;2024-01-30T04:36:50;35.87;;;21.93;;
21128;SDS011;10722;51.910;8.352;2024-01-30T04:39:35;37.07;;;21.87;;
21128;SDS011;10722;51.910;8.352;2024-01-30T04:42:20;36.07;;;22.10;;
21128;SDS011;10722;51.910;8.352;2024-01-30T04:45:05;35.63;;;21.77;;
21128;SDS011;10722;51.910;8.352;2024-01-30T04:47:50;36.67;;;21.60;;
21128;SDS011;10722;51.910;8.352;2024-01-30T04:50:35;35.40;;;21.07;;
21128;SDS011;10722;51.910;8.352;2024-01-30T04:53:20;33.80;;;21.57;;
21128;SDS011;10722;51.910;8.352;2024-01-30T04:56:05;34.93;;;22.07;;
21128;SDS011;10722;51.910;8.352;2024-01-30T04:58:51;36.47;;;22.00;;
21128;SDS011;10722;51.910;8.352;2024-01-30T05:01:35;37.00;;;23.00;;
21128;SDS011;10722;51.910;8.352;2024-01-30T05:04:21;36.53;;;21.57;;
21128;SDS011;10722;51.910;8.352;2024-01-30T05:07:06;37.77;;;22.70;;
21128;SDS011;10722;51.910;8.352;2024-01-30T05:09:51;35.87;;;22.37;;
21128;SDS011;10722;51.910;8.352;2024-01-30T05:12:39;37.27;;;22.60;;
21128;SDS011;10722;51.910;8.352;2024-01-30T05:15:25;35.17;;;21.63;;
21128;SDS011;10722;51.910;8.352;2024-01-30T05:18:10;36.40;;;22.40;;
21128;SDS011;10722;51.910;8.352;2024-01-30T05:20:55;37.90;;;22.73;;
21128;SDS011;10722;51.910;8.352;2024-01-30T05:23:40;41.03;;;22.97;;
21128;SDS011;10722;51.910;8.352;2024-01-30T05:26:25;37.53;;;23.50;;
21128;SDS011;10722;51.910;8.352;2024-01-30T05:29:10;40.43;;;23.27;;
21128;SDS011;10722;51.910;8.352;2024-01-30T05:31:55;37.07;;;23.00;;
21128;SDS011;10722;51.910;8.352;2024-01-30T05:34:40;35.57;;;22.67;;
21128;SDS011;10722;51.910;8.352;2024-01-30T05:37:25;37.07;;;22.60;;
21128;SDS011;10722;51.910;8.352;2024-01-30T05:40:10;35.67;;;22.70;;
21128;SDS011;10722;51.910;8.352;2024-01-30T05:42:56;38.93;;;22.80;;
21128;SDS011;10722;51.910;8.352;2024-01-30T05:45:41;36.43;;;21.90;;
21128;SDS011;10722;51.910;8.352;2024-01-30T05:48:27;38.47;;;22.90;;
21128;SDS011;10722;51.910;8.352;2024-01-30T05:51:12;36.47;;;21.50;;
21128;SDS011;10722;51.910;8.352;2024-01-30T05:53:57;34.50;;;21.10;;
21128;SDS011;10722;51.910;8.352;2024-01-30T05:56:42;36.87;;;22.37;;
21128;SDS011;10722;51.910;8.352;2024-01-30T05:59:27;36.97;;;22.27;;
21128;SDS011;10722;51.910;8.352;2024-01-30T06:02:12;35.23;;;21.87;;
21128;SDS011;10722;51.910;8.352;2024-01-30T06:04:58;36.90;;;21.03;;
21128;SDS011;10722;51.910;8.352;2024-01-30T06:07:43;37.67;;;22.93;;
21128;SDS011;10722;51.910;8.352;2024-01-30T06:10:28;37.20;;;21.50;;
21128;SDS011;10722;51.910;8.352;2024-01-30T06:13:13;36.87;;;21.87;;
21128;SDS011;10722;51.910;8.352;2024-01-30T06:15:58;34.33;;;21.70;;
21128;SDS011;10722;51.910;8.352;2024-01-30T06:18:43;35.13;;;21.40;;
21128;SDS011;10722;51.910;8.352;2024-01-30T06:21:28;36.20;;;21.60;;
21128;SDS011;10722;51.910;8.352;2024-01-30T06:24:13;35.40;;;21.27;;
21128;SDS011;10722;51.910;8.352;2024-01-30T06:26:58;35.57;;;21.57;;
21128;SDS011;10722;51.910;8.352;2024-01-30T06:29:43;36.13;;;20.70;;
21128;SDS011;10722;51.910;8.352;2024-01-30T06:32:28;37.40;;;21.93;;
21128;SDS011;10722;51.910;8.352;2024-01-30T06:35:14;35.27;;;21.20;;
21128;SDS011;10722;51.910;8.352;2024-01-30T06:37:59;37.67;;;21.20;;
21128;SDS011;10722;51.910;8.352;2024-01-30T06:40:44;37.47;;;21.63;;
21128;SDS011;10722;51.910;8.352;2024-01-30T06:43:29;38.73;;;22.50;;
21128;SDS011;10722;51.910;8.352;2024-01-30T06:46:14;38.67;;;22.77;;
21128;SDS011;10722;51.910;8.352;2024-01-30T06:49:00;38.80;;;23.90;;
21128;SDS011;10722;51.910;8.352;2024-01-30T06:51:45;38.50;;;22.60;;
21128;SDS011;10722;51.910;8.352;2024-01-30T06:54:30;38.77;;;22.10;;
21128;SDS011;10722;51.910;8.352;2024-01-30T06:57:15;37.20;;;22.73;;
21128;SDS011;10722;51.910;8.352;2024-01-30T07:00:00;38.73;;;23.10;;
21128;SDS011;10722;51.910;8.352;2024-01-30T07:02:46;35.33;;;22.73;;
21128;SDS011;10722;51.910;8.352;2024-01-30T07:05:31;35.90;;;22.30;;
21128;SDS011;10722;51.910;8.352;2024-01-30T07:08:16;34.07;;;21.93;;
21128;SDS011;10722;51.910;8.352;2024-01-30T07:11:01;36.77;;;21.40;;
21128;SDS011;10722;51.910;8.352;2024-01-30T07:13:46;34.70;;;21.57;;
21128;SDS011;10722;51.910;8.352;2024-01-30T07:16:31;34.83;;;21.37;;
21128;SDS011;10722;51.910;8.352;2024-01-30T07:19:17;36.07;;;21.77;;
21128;SDS011;10722;51.910;8.352;2024-01-30T07:22:02;33.50;;;21.53;;
21128;SDS011;10722;51.910;8.352;2024-01-30T07:24:47;34.47;;;20.83;;
21128;SDS011;10722;51.910;8.352;2024-01-30T07:27:32;35.33;;;20.30;;
21128;SDS011;10722;51.910;8.352;2024-01-30T07:30:17;32.67;;;20.07;;
21128;SDS011;10722;51.910;8.352;2024-01-30T07:33:02;36.63;;;20.53;;
21128;SDS011;10722;51.910;8.352;2024-01-30T07:35:47;33.67;;;20.10;;
21128;SDS011;10722;51.910;8.352;2024-01-30T07:38:32;34.83;;;20.47;;
21128;SDS011;10722;51.910;8.352;2024-01-30T07:41:17;87.23;;;51.27;;
21128;SDS011;10722;51.910;8.352;2024-01-30T07:44:03;34.07;;;21.53;;
21128;SDS011;10722;51.910;8.352;2024-01-30T07:46:48;33.00;;;19.60;;
21128;SDS011;10722;51.910;8.352;2024-01-30T07:49:33;32.63;;;19.53;;
21128;SDS011;10722;51.910;8.352;2024-01-30T07:52:18;34.77;;;19.70;;
21128;SDS011;10722;51.910;8.352;2024-01-30T07:55:04;34.87;;;20.10;;
21128;SDS011;10722;51.910;8.352;2024-01-30T07:57:52;30.80;;;19.87;;
21128;SDS011;10722;51.910;8.352;2024-01-30T08:00:37;33.97;;;20.10;;
21128;SDS011;10722;51.910;8.352;2024-01-30T08:03:23;32.50;;;19.47;;
21128;SDS011;10722;51.910;8.352;2024-01-30T08:06:09;34.80;;;20.13;;
21128;SDS011;10722;51.910;8.352;2024-01-30T08:08:54;33.87;;;19.87;;
21128;SDS011;10722;51.910;8.352;2024-01-30T08:11:39;30.00;;;18.70;;
21128;SDS011;10722;51.910;8.352;2024-01-30T08:14:24;34.83;;;19.43;;
21128;SDS011;10722;51.910;8.352;2024-01-30T08:17:10;36.00;;;19.10;;
21128;SDS011;10722;51.910;8.352;2024-01-30T08:19:54;35.70;;;20.70;;
21128;SDS011;10722;51.910;8.352;2024-01-30T08:22:40;31.77;;;18.67;;
21128;SDS011;10722;51.910;8.352;2024-01-30T08:25:26;32.50;;;18.93;;
21128;SDS011;10722;51.910;8.352;2024-01-30T08:28:11;32.57;;;19.90;;
21128;SDS011;10722;51.910;8.352;2024-01-30T08:30:56;33.47;;;18.40;;
21128;SDS011;10722;51.910;8.352;2024-01-30T08:33:41;38.00;;;22.57;;
21128;SDS011;10722;51.910;8.352;2024-01-30T08:36:28;66.57;;;36.27;;
21128;SDS011;10722;51.910;8.352;2024-01-30T08:39:14;49.70;;;29.27;;
21128;SDS011;10722;51.910;8.352;2024-01-30T08:41:59;49.07;;;30.33;;
21128;SDS011;10722;51.910;8.352;2024-01-30T08:44:44;42.93;;;24.67;;
21128;SDS011;10722;51.910;8.352;2024-01-30T08:47:36;34.73;;;19.47;;
21128;SDS011;10722;51.910;8.352;2024-01-30T08:50:21;29.40;;;16.57;;
21128;SDS011;10722;51.910;8.352;2024-01-30T08:53:06;28.50;;;16.20;;
21128;SDS011;10722;51.910;8.352;2024-01-30T08:55:51;25.37;;;15.47;;
21128;SDS011;10722;51.910;8.352;2024-01-30T08:58:36;25.10;;;15.33;;
21128;SDS011;10722;51.910;8.352;2024-01-30T09:01:22;28.03;;;14.70;;
21128;SDS011;10722;51.910;8.352;2024-01-30T09:04:07;29.63;;;16.17;;
21128;SDS011;10722;51.910;8.352;2024-01-30T09:06:52;27.20;;;15.50;;
21128;SDS011;10722;51.910;8.352;2024-01-30T09:09:38;26.23;;;15.93;;
21128;SDS011;10722;51.910;8.352;2024-01-30T09:12:24;29.00;;;15.83;;
21128;SDS011;10722;51.910;8.352;2024-01-30T09:15:09;31.07;;;16.37;;
21128;SDS011;10722;51.910;8.352;2024-01-30T09:17:54;30.27;;;16.33;;
21128;SDS011;10722;51.910;8.352;2024-01-30T09:20:40;24.23;;;14.53;;
21128;SDS011;10722;51.910;8.352;2024-01-30T09:23:25;26.47;;;14.77;;
21128;SDS011;10722;51.910;8.352;2024-01-30T09:26:12;25.73;;;14.73;;
21128;SDS011;10722;51.910;8.352;2024-01-30T09:28:56;25.53;;;14.20;;
21128;SDS011;10722;51.910;8.352;2024-01-30T09:31:45;27.67;;;15.37;;
21128;SDS011;10722;51.910;8.352;2024-01-30T09:34:31;25.37;;;14.07;;
21128;SDS011;10722;51.910;8.352;2024-01-30T09:37:16;23.73;;;13.30;;
21128;SDS011;10722;51.910;8.352;2024-01-30T09:40:02;26.03;;;14.00;;
21128;SDS011;10722;51.910;8.352;2024-01-30T09:42:47;23.30;;;13.07;;
21128;SDS011;10722;51.910;8.352;2024-01-30T09:45:35;25.87;;;12.60;;
21128;SDS011;10722;51.910;8.352;2024-01-30T09:48:20;26.20;;;13.10;;
21128;SDS011;10722;51.910;8.352;2024-01-30T09:51:06;23.80;;;12.87;;
21128;SDS011;10722;51.910;8.352;2024-01-30T09:53:53;23.67;;;12.30;;
21128;SDS011;10722;51.910;8.352;2024-01-30T09:56:39;22.50;;;12.30;;
21128;SDS011;10722;51.910;8.352;2024-01-30T09:59:24;23.80;;;11.97;;
21128;SDS011;10722;51.910;8.352;2024-01-30T10:02:09;23.83;;;13.93;;
21128;SDS011;10722;51.910;8.352;2024-01-30T10:04:55;25.30;;;11.83;;
21128;SDS011;10722;51.910;8.352;2024-01-30T10:07:49;22.50;;;11.90;;
21128;SDS011;10722;51.910;8.352;2024-01-30T10:10:35;21.03;;;11.57;;
21128;SDS011;10722;51.910;8.352;2024-01-30T10:13:21;19.40;;;11.00;;
21128;SDS011;10722;51.910;8.352;2024-01-30T10:16:06;20.73;;;10.47;;
21128;SDS011;10722;51.910;8.352;2024-01-30T10:18:51;21.07;;;11.37;;
21128;SDS011;10722;51.910;8.352;2024-01-30T10:21:37;20.80;;;11.23;;
21128;SDS011;10722;51.910;8.352;2024-01-30T10:24:25;22.27;;;11.37;;
21128;SDS011;10722;51.910;8.352;2024-01-30T10:27:10;22.13;;;11.17;;
21128;SDS011;10722;51.910;8.352;2024-01-30T10:29:55;20.17;;;10.43;;
21128;SDS011;10722;51.910;8.352;2024-01-30T10:32:40;21.07;;;10.67;;
21128;SDS011;10722;51.910;8.352;2024-01-30T10:35:26;22.33;;;10.37;;
21128;SDS011;10722;51.910;8.352;2024-01-30T10:38:11;20.73;;;10.70;;
21128;SDS011;10722;51.910;8.352;2024-01-30T10:41:01;18.87;;;9.50;;
21128;SDS011;10722;51.910;8.352;2024-01-30T10:43:58;19.60;;;9.70;;
21128;SDS011;10722;51.910;8.352;2024-01-30T10:46:50;19.27;;;10.00;;
21128;SDS011;10722;51.910;8.352;2024-01-30T10:49:48;20.13;;;9.60;;
21128;SDS011;10722;51.910;8.352;2024-01-30T10:52:34;21.35;;;10.15;;
21128;SDS011;10722;51.910;8.352;2024-01-30T10:55:20;19.55;;;9.82;;
21128;SDS011;10722;51.910;8.352;2024-01-30T10:58:06;20.37;;;10.17;;
21128;SDS011;10722;51.910;8.352;2024-01-30T11:00:53;19.95;;;9.07;;
21128;SDS011;10722;51.910;8.352;2024-01-30T11:03:39;19.38;;;9.38;;
21128;SDS011;10722;51.910;8.352;2024-01-30T11:06:26;19.57;;;9.40;;
21128;SDS011;10722;51.910;8.352;2024-01-30T11:09:11;17.38;;;8.82;;
21128;SDS011;10722;51.910;8.352;2024-01-30T11:11:57;18.33;;;9.45;;
21128;SDS011;10722;51.910;8.352;2024-01-30T11:14:42;19.17;;;9.50;;
21128;SDS011;10722;51.910;8.352;2024-01-30T11:17:27;19.77;;;9.65;;
21128;SDS011;10722;51.910;8.352;2024-01-30T11:20:26;18.08;;;9.13;;
21128;SDS011;10722;51.910;8.352;2024-01-30T11:23:12;20.27;;;9.25;;
21128;SDS011;10722;51.910;8.352;2024-01-30T11:25:57;19.65;;;9.48;;
21128;SDS011;10722;51.910;8.352;2024-01-30T11:28:43;19.67;;;8.52;;
21128;SDS011;10722;51.910;8.352;2024-01-30T11:31:38;19.10;;;9.27;;
21128;SDS011;10722;51.910;8.352;2024-01-30T11:34:23;19.08;;;8.73;;
21128;SDS011;10722;51.910;8.352;2024-01-30T11:37:09;20.80;;;8.82;;
21128;SDS011;10722;51.910;8.352;2024-01-30T11:39:57;20.27;;;8.75;;
21128;SDS011;10722;51.910;8.352;2024-01-30T11:42:43;19.63;;;9.40;;
21128;SDS011;10722;51.910;8.352;2024-01-30T11:45:28;17.13;;;8.80;;
21128;SDS011;10722;51.910;8.352;2024-01-30T11:48:14;17.08;;;8.23;;
21128;SDS011;10722;51.910;8.352;2024-01-30T11:50:59;18.42;;;8.18;;
21128;SDS011;10722;51.910;8.352;2024-01-30T11:53:49;23.55;;;8.68;;
21128;SDS011;10722;51.910;8.352;2024-01-30T11:56:34;18.90;;;8.63;;
21128;SDS011;10722;51.910;8.352;2024-01-30T11:59:21;21.15;;;9.63;;
21128;SDS011;10722;51.910;8.352;2024-01-30T12:02:05;20.80;;;8.90;;
21128;SDS011;10722;51.910;8.352;2024-01-30T12:04:51;20.83;;;9.57;;
21128;SDS011;10722;51.910;8.352;2024-01-30T12:07:36;21.60;;;9.38;;
21128;SDS011;10722;51.910;8.352;2024-01-30T12:10:22;17.42;;;8.00;;
21128;SDS011;10722;51.910;8.352;2024-01-30T12:13:07;17.90;;;8.05;;
21128;SDS011;10722;51.910;8.352;2024-01-30T12:15:52;18.38;;;8.30;;
21128;SDS011;10722;51.910;8.352;2024-01-30T12:18:37;19.73;;;8.32;;
21128;SDS011;10722;51.910;8.352;2024-01-30T12:21:22;16.58;;;8.32;;
21128;SDS011;10722;51.910;8.352;2024-01-30T12:24:08;16.85;;;8.00;;
21128;SDS011;10722;51.910;8.352;2024-01-30T12:26:56;19.42;;;8.23;;
21128;SDS011;10722;51.910;8.352;2024-01-30T12:29:42;17.02;;;8.02;;
21128;SDS011;10722;51.910;8.352;2024-01-30T12:32:27;18.17;;;8.48;;
21128;SDS011;10722;51.910;8.352;2024-01-30T12:35:14;20.75;;;8.85;;
21128;SDS011;10722;51.910;8.352;2024-01-30T12:38:01;17.98;;;8.45;;
21128;SDS011;10722;51.910;8.352;2024-01-30T12:40:47;18.52;;;7.85;;
21128;SDS011;10722;51.910;8.352;2024-01-30T12:43:32;16.48;;;8.23;;
21128;SDS011;10722;51.910;8.352;2024-01-30T12:46:29;17.75;;;8.32;;
21128;SDS011;10722;51.910;8.352;2024-01-30T12:49:14;17.20;;;8.45;;
21128;SDS011;10722;51.910;8.352;2024-01-30T12:52:00;20.48;;;8.10;;
21128;SDS011;10722;51.910;8.352;2024-01-30T12:54:45;18.65;;;8.13;;
21128;SDS011;10722;51.910;8.352;2024-01-30T12:57:30;19.08;;;8.05;;
21128;SDS011;10722;51.910;8.352;2024-01-30T13:00:15;21.75;;;8.68;;
21128;SDS011;10722;51.910;8.352;2024-01-30T13:03:01;20.77;;;8.60;;
21128;SDS011;10722;51.910;8.352;2024-01-30T13:05:46;19.02;;;7.80;;
21128;SDS011;10722;51.910;8.352;2024-01-30T13:08:31;18.52;;;8.13;;
21128;SDS011;10722;51.910;8.352;2024-01-30T13:11:16;18.52;;;8.88;;
21128;SDS011;10722;51.910;8.352;2024-01-30T13:14:05;19.25;;;8.82;;
21128;SDS011;10722;51.910;8.352;2024-01-30T13:16:50;19.90;;;8.73;;
21128;SDS011;10722;51.910;8.352;2024-01-30T13:19:35;23.15;;;8.95;;
21128;SDS011;10722;51.910;8.352;2024-01-30T13:22:20;19.27;;;8.50;;
21128;SDS011;10722;51.910;8.352;2024-01-30T13:25:05;19.40;;;8.73;;
21128;SDS011;10722;51.910;8.352;2024-01-30T13:27:50;21.42;;;8.55;;
21128;SDS011;10722;51.910;8.352;2024-01-30T13:30:35;23.25;;;8.80;;
21128;SDS011;10722;51.910;8.352;2024-01-30T13:33:21;20.15;;;9.05;;
21128;SDS011;10722;51.910;8.352;2024-01-30T13:36:06;20.88;;;9.07;;
21128;SDS011;10722;51.910;8.352;2024-01-30T13:38:52;22.83;;;9.80;;
21128;SDS011;10722;51.910;8.352;2024-01-30T13:41:37;24.90;;;9.15;;
21128;SDS011;10722;51.910;8.352;2024-01-30T13:44:22;21.67;;;10.23;;
21128;SDS011;10722;51.910;8.352;2024-01-30T13:47:07;26.25;;;9.57;;
21128;SDS011;10722;51.910;8.352;2024-01-30T13:49:52;21.27;;;9.25;;
21128;SDS011;10722;51.910;8.352;2024-01-30T13:52:38;23.23;;;9.60;;
21128;SDS011;10722;51.910;8.352;2024-01-30T13:55:29;22.17;;;9.23;;
21128;SDS011;10722;51.910;8.352;2024-01-30T13:58:14;23.20;;;9.40;;
21128;SDS011;10722;51.910;8.352;2024-01-30T14:01:00;22.45;;;9.18;;
21128;SDS011;10722;51.910;8.352;2024-01-30T14:03:45;21.27;;;9.43;;
21128;SDS011;10722;51.910;8.352;2024-01-30T14:06:30;20.15;;;9.65;;
21128;SDS011;10722;51.910;8.352;2024-01-30T14:09:15;22.27;;;9.20;;
21128;SDS011;10722;51.910;8.352;2024-01-30T14:12:01;21.35;;;9.13;;
21128;SDS011;10722;51.910;8.352;2024-01-30T14:14:45;22.08;;;9.13;;
21128;SDS011;10722;51.910;8.352;2024-01-30T14:17:30;23.67;;;8.23;;
21128;SDS011;10722;51.910;8.352;2024-01-30T14:20:16;20.38;;;8.93;;
21128;SDS011;10722;51.910;8.352;2024-01-30T14:23:01;21.80;;;8.95;;
21128;SDS011;10722;51.910;8.352;2024-01-30T14:25:46;22.70;;;8.82;;
21128;SDS011;10722;51.910;8.352;2024-01-30T14:28:30;20.63;;;8.27;;
21128;SDS011;10722;51.910;8.352;2024-01-30T14:31:15;26.30;;;9.02;;
21128;SDS011;10722;51.910;8.352;2024-01-30T14:34:01;21.42;;;8.90;;
21128;SDS011;10722;51.910;8.352;2024-01-30T14:36:46;22.02;;;8.88;;
21128;SDS011;10722;51.910;8.352;2024-01-30T14:39:32;21.20;;;8.60;;
21128;SDS011;10722;51.910;8.352;2024-01-30T14:42:17;21.80;;;8.65;;
21128;SDS011;10722;51.910;8.352;2024-01-30T14:45:02;21.50;;;8.98;;
21128;SDS011;10722;51.910;8.352;2024-01-30T14:47:48;19.35;;;8.60;;
21128;SDS011;10722;51.910;8.352;2024-01-30T14:50:33;21.40;;;9.02;;
21128;SDS011;10722;51.910;8.352;2024-01-30T14:53:18;23.52;;;9.52;;
21128;SDS011;10722;51.910;8.352;2024-01-30T14:56:03;20.83;;;9.05;;
21128;SDS011;10722;51.910;8.352;2024-01-30T14:58:49;20.02;;;9.52;;
21128;SDS011;10722;51.910;8.352;2024-01-30T15:01:33;18.38;;;9.00;;
21128;SDS011;10722;51.910;8.352;2024-01-30T15:04:19;25.13;;;9.48;;
21128;SDS011;10722;51.910;8.352;2024-01-30T15:07:04;21.17;;;9.10;;
21128;SDS011;10722;51.910;8.352;2024-01-30T15:09:50;23.27;;;9.73;;
21128;SDS011;10722;51.910;8.352;2024-01-30T15:12:36;21.60;;;8.90;;
21128;SDS011;10722;51.910;8.352;2024-01-30T15:15:21;23.88;;;9.77;;
21128;SDS011;10722;51.910;8.352;2024-01-30T15:18:06;26.45;;;9.68;;
21128;SDS011;10722;51.910;8.352;2024-01-30T15:20:52;20.85;;;9.10;;
21128;SDS011;10722;51.910;8.352;2024-01-30T15:23:37;19.90;;;9.60;;
21128;SDS011;10722;51.910;8.352;2024-01-30T15:26:22;20.48;;;9.68;;
21128;SDS011;10722;51.910;8.352;2024-01-30T15:29:07;26.58;;;10.77;;
21128;SDS011;10722;51.910;8.352;2024-01-30T15:31:53;20.08;;;10.18;;
21128;SDS011;10722;51.910;8.352;2024-01-30T15:34:38;21.90;;;10.00;;
21128;SDS011;10722;51.910;8.352;2024-01-30T15:37:23;24.80;;;10.82;;
21128;SDS011;10722;51.910;8.352;2024-01-30T15:40:09;20.85;;;10.48;;
21128;SDS011;10722;51.910;8.352;2024-01-30T15:42:56;23.20;;;11.35;;
21128;SDS011;10722;51.910;8.352;2024-01-30T15:45:41;26.77;;;10.70;;
21128;SDS011;10722;51.910;8.352;2024-01-30T15:48:26;23.92;;;10.40;;
21128;SDS011;10722;51.910;8.352;2024-01-30T15:51:11;24.03;;;10.67;;
21128;SDS011;10722;51.910;8.352;2024-01-30T15:53:56;22.25;;;10.18;;
21128;SDS011;10722;51.910;8.352;2024-01-30T15:56:41;24.25;;;10.35;;
21128;SDS011;10722;51.910;8.352;2024-01-30T15:59:26;24.23;;;10.68;;
21128;SDS011;10722;51.910;8.352;2024-01-30T16:02:11;23.58;;;10.93;;
21128;SDS011;10722;51.910;8.352;2024-01-30T16:04:57;22.27;;;10.35;;
21128;SDS011;10722;51.910;8.352;2024-01-30T16:07:42;22.08;;;9.70;;
21128;SDS011;10722;51.910;8.352;2024-01-30T16:10:27;22.17;;;10.15;;
21128;SDS011;10722;51.910;8.352;2024-01-30T16:13:12;23.60;;;9.82;;